sensor_id;sensor_type;location;lat;lon;timestamp;pressure;altitude;pressure_sealevel;temperature;humidity
30875;BME280;17581;43.222;27.924;2023-05-10T00:01:46;101333.66;;;10.81;73.28
30875;BME280;17581;43.222;27.924;2023-05-10T00:04:12;101336.22;;;10.83;72.83
30875;BME280;17581;43.222;27.924;2023-05-10T00:06:38;101324.41;;;10.85;72.70
30875;BME280;17581;43.222;27.924;2023-05-10T00:09:03;101336.00;;;10.86;72.98
30875;BME280;17581;43.222;27.924;2023-05-10T00:11:29;101341.59;;;10.96;72.92
30875;BME280;17581;43.222;27.924;2023-05-10T00:13:54;101326.66;;;10.91;72.27
30875;BME280;17581;43.222;27.924;2023-05-10T00:16:20;101314.91;;;10.80;72.16
30875;BME280;17581;43.222;27.924;2023-05-10T00:18:45;101312.00;;;10.83;71.93
30875;BME280;17581;43.222;27.924;2023-05-10T00:21:11;101339.69;;;10.98;71.79
30875;BME280;17581;43.222;27.924;2023-05-10T00:23:36;101317.41;;;10.83;71.78
30875;BME280;17581;43.222;27.924;2023-05-10T00:26:02;101326.47;;;10.82;72.21
30875;BME280;17581;43.222;27.924;2023-05-10T00:28:28;101329.03;;;10.83;72.55
30875;BME280;17581;43.222;27.924;2023-05-10T00:30:54;101320.00;;;10.84;71.98
30875;BME280;17581;43.222;27.924;2023-05-10T00:33:19;101317.53;;;10.81;72.03
30875;BME280;17581;43.222;27.924;2023-05-10T00:35:45;101328.94;;;10.85;72.49
30875;BME280;17581;43.222;27.924;2023-05-10T00:38:10;101344.44;;;10.81;72.80
30875;BME280;17581;43.222;27.924;2023-05-10T00:40:36;101337.31;;;10.80;72.73
30875;BME280;17581;43.222;27.924;2023-05-10T00:43:02;101334.84;;;10.77;72.97
30875;BME280;17581;43.222;27.924;2023-05-10T00:45:29;101328.28;;;10.81;73.47
30875;BME280;17581;43.222;27.924;2023-05-10T00:47:55;101324.19;;;10.88;72.15
30875;BME280;17581;43.222;27.924;2023-05-10T00:50:24;101329.66;;;10.87;71.81
30875;BME280;17581;43.222;27.924;2023-05-10T00:52:50;101324.59;;;10.82;71.92
30875;BME280;17581;43.222;27.924;2023-05-10T00:55:15;101321.81;;;10.59;72.32
30875;BME280;17581;43.222;27.924;2023-05-10T00:57:41;101309.16;;;10.61;72.53
30875;BME280;17581;43.222;27.924;2023-05-10T01:00:08;101307.50;;;10.58;72.48
30875;BME280;17581;43.222;27.924;2023-05-10T01:02:34;101322.03;;;10.68;72.52
30875;BME280;17581;43.222;27.924;2023-05-10T01:05:02;101308.28;;;10.60;72.71
30875;BME280;17581;43.222;27.924;2023-05-10T01:07:28;101296.00;;;10.56;73.04
30875;BME280;17581;43.222;27.924;2023-05-10T01:09:54;101309.78;;;10.64;72.70
30875;BME280;17581;43.222;27.924;2023-05-10T01:12:19;101302.69;;;10.63;72.64
30875;BME280;17581;43.222;27.924;2023-05-10T01:14:46;101311.50;;;10.65;72.67
30875;BME280;17581;43.222;27.924;2023-05-10T01:17:12;101321.41;;;10.65;72.66
30875;BME280;17581;43.222;27.924;2023-05-10T01:19:38;101312.59;;;10.63;72.94
30875;BME280;17581;43.222;27.924;2023-05-10T01:25:02;101324.09;;;10.65;72.66
30875;BME280;17581;43.222;27.924;2023-05-10T01:27:47;101298.38;;;10.48;72.61
30875;BME280;17581;43.222;27.924;2023-05-10T01:32:57;101300.75;;;10.40;73.02
30875;BME280;17581;43.222;27.924;2023-05-10T01:38:18;101324.41;;;10.48;74.35
30875;BME280;17581;43.222;27.924;2023-05-10T01:43:22;101313.34;;;10.40;74.33
30875;BME280;17581;43.222;27.924;2023-05-10T01:46:10;101316.44;;;10.46;74.10
30875;BME280;17581;43.222;27.924;2023-05-10T01:48:47;101315.59;;;10.33;74.50
30875;BME280;17581;43.222;27.924;2023-05-10T01:51:21;101319.66;;;10.26;74.56
30875;BME280;17581;43.222;27.924;2023-05-10T01:53:47;101261.09;;;9.92;75.33
30875;BME280;17581;43.222;27.924;2023-05-10T01:56:15;101283.16;;;10.09;75.45
30875;BME280;17581;43.222;27.924;2023-05-10T01:58:43;101310.00;;;10.23;74.89
30875;BME280;17581;43.222;27.924;2023-05-10T02:01:11;101315.66;;;10.19;75.19
30875;BME280;17581;43.222;27.924;2023-05-10T02:03:38;101312.31;;;10.15;75.04
30875;BME280;17581;43.222;27.924;2023-05-10T02:06:05;101290.34;;;9.96;75.57
30875;BME280;17581;43.222;27.924;2023-05-10T02:08:33;101313.03;;;10.05;75.68
30875;BME280;17581;43.222;27.924;2023-05-10T02:11:01;101290.44;;;9.95;75.97
30875;BME280;17581;43.222;27.924;2023-05-10T02:13:28;101309.91;;;9.98;75.86
30875;BME280;17581;43.222;27.924;2023-05-10T02:15:56;101303.88;;;9.95;75.98
30875;BME280;17581;43.222;27.924;2023-05-10T02:18:23;101312.16;;;9.92;76.21
30875;BME280;17581;43.222;27.924;2023-05-10T02:20:52;101315.47;;;9.82;76.52
30875;BME280;17581;43.222;27.924;2023-05-10T02:23:20;101305.13;;;9.76;76.66
30875;BME280;17581;43.222;27.924;2023-05-10T02:25:47;101295.31;;;9.63;77.26
30875;BME280;17581;43.222;27.924;2023-05-10T02:28:14;101303.59;;;9.72;77.17
30875;BME280;17581;43.222;27.924;2023-05-10T02:30:41;101284.22;;;9.55;77.15
30875;BME280;17581;43.222;27.924;2023-05-10T02:33:06;101308.75;;;9.63;77.50
30875;BME280;17581;43.222;27.924;2023-05-10T02:35:33;101321.44;;;9.73;77.72
30875;BME280;17581;43.222;27.924;2023-05-10T02:38:00;101301.53;;;9.63;77.65
30875;BME280;17581;43.222;27.924;2023-05-10T02:40:27;101296.03;;;9.52;77.77
30875;BME280;17581;43.222;27.924;2023-05-10T02:42:54;101279.00;;;9.39;77.87
30875;BME280;17581;43.222;27.924;2023-05-10T02:45:24;101289.72;;;9.39;78.09
30875;BME280;17581;43.222;27.924;2023-05-10T02:47:51;101319.25;;;9.53;78.74
30875;BME280;17581;43.222;27.924;2023-05-10T02:50:17;101276.22;;;9.14;79.01
30875;BME280;17581;43.222;27.924;2023-05-10T02:52:46;101310.47;;;9.37;79.21
30875;BME280;17581;43.222;27.924;2023-05-10T02:55:15;101316.38;;;9.42;79.06
30875;BME280;17581;43.222;27.924;2023-05-10T02:58:01;101325.63;;;9.38;79.61
30875;BME280;17581;43.222;27.924;2023-05-10T03:00:27;101310.31;;;9.26;79.88
30875;BME280;17581;43.222;27.924;2023-05-10T03:02:53;101281.06;;;9.21;79.73
30875;BME280;17581;43.222;27.924;2023-05-10T03:05:20;101297.63;;;9.28;79.68
30875;BME280;17581;43.222;27.924;2023-05-10T03:07:46;101301.66;;;9.35;79.61
30875;BME280;17581;43.222;27.924;2023-05-10T03:10:12;101302.06;;;9.29;79.43
30875;BME280;17581;43.222;27.924;2023-05-10T03:18:29;101339.44;;;9.59;79.41
30875;BME280;17581;43.222;27.924;2023-05-10T03:21:04;101333.88;;;9.62;79.47
30875;BME280;17581;43.222;27.924;2023-05-10T03:23:35;101314.72;;;9.54;79.67
30875;BME280;17581;43.222;27.924;2023-05-10T03:26:05;101299.66;;;9.51;79.39
30875;BME280;17581;43.222;27.924;2023-05-10T03:28:34;101333.72;;;9.77;79.50
30875;BME280;17581;43.222;27.924;2023-05-10T03:31:00;101332.84;;;9.77;79.54
30875;BME280;17581;43.222;27.924;2023-05-10T03:33:27;101324.47;;;9.81;79.18
30875;BME280;17581;43.222;27.924;2023-05-10T03:35:53;101318.72;;;9.88;79.30
30875;BME280;17581;43.222;27.924;2023-05-10T03:38:18;101321.81;;;9.94;78.93
30875;BME280;17581;43.222;27.924;2023-05-10T03:40:44;101333.88;;;10.01;78.90
30875;BME280;17581;43.222;27.924;2023-05-10T03:43:09;101317.88;;;10.00;78.88
30875;BME280;17581;43.222;27.924;2023-05-10T03:45:34;101315.94;;;10.02;79.33
30875;BME280;17581;43.222;27.924;2023-05-10T03:48:00;101330.09;;;10.18;78.93
30875;BME280;17581;43.222;27.924;2023-05-10T03:50:26;101321.63;;;10.24;78.67
30875;BME280;17581;43.222;27.924;2023-05-10T03:52:51;101310.84;;;10.24;78.51
30875;BME280;17581;43.222;27.924;2023-05-10T03:55:17;101342.38;;;10.47;78.25
30875;BME280;17581;43.222;27.924;2023-05-10T03:57:42;101342.69;;;10.55;78.06
30875;BME280;17581;43.222;27.924;2023-05-10T04:00:09;101340.56;;;10.60;77.60
30875;BME280;17581;43.222;27.924;2023-05-10T04:02:35;101331.72;;;10.58;77.47
30875;BME280;17581;43.222;27.924;2023-05-10T04:05:00;101344.31;;;10.70;77.67
30875;BME280;17581;43.222;27.924;2023-05-10T04:07:26;101334.31;;;10.72;77.64
30875;BME280;17581;43.222;27.924;2023-05-10T04:09:51;101334.63;;;10.80;77.41
30875;BME280;17581;43.222;27.924;2023-05-10T04:12:17;101330.84;;;10.83;77.38
30875;BME280;17581;43.222;27.924;2023-05-10T04:14:42;101339.91;;;10.95;77.46
30875;BME280;17581;43.222;27.924;2023-05-10T04:17:08;101328.06;;;10.97;77.22
30875;BME280;17581;43.222;27.924;2023-05-10T04:19:33;101341.13;;;11.14;76.98
30875;BME280;17581;43.222;27.924;2023-05-10T04:21:59;101343.28;;;11.22;77.28
30875;BME280;17581;43.222;27.924;2023-05-10T04:24:25;101337.47;;;11.28;77.17
30875;BME280;17581;43.222;27.924;2023-05-10T04:26:50;101299.59;;;11.06;77.23
30875;BME280;17581;43.222;27.924;2023-05-10T04:29:16;101307.00;;;11.15;76.86
30875;BME280;17581;43.222;27.924;2023-05-10T04:31:42;101346.66;;;11.49;76.69
30875;BME280;17581;43.222;27.924;2023-05-10T04:34:07;101317.56;;;11.41;76.50
30875;BME280;17581;43.222;27.924;2023-05-10T04:36:33;101339.72;;;11.58;76.16
30875;BME280;17581;43.222;27.924;2023-05-10T04:39:00;101331.63;;;11.70;76.22
30875;BME280;17581;43.222;27.924;2023-05-10T04:41:27;101325.00;;;11.74;75.47
30875;BME280;17581;43.222;27.924;2023-05-10T04:43:53;101312.28;;;11.76;75.40
30875;BME280;17581;43.222;27.924;2023-05-10T04:46:18;101332.88;;;12.01;74.54
30875;BME280;17581;43.222;27.924;2023-05-10T04:48:44;101331.28;;;12.10;74.54
30875;BME280;17581;43.222;27.924;2023-05-10T04:51:09;101340.66;;;12.28;74.23
30875;BME280;17581;43.222;27.924;2023-05-10T04:53:35;101297.97;;;12.11;73.50
30875;BME280;17581;43.222;27.924;2023-05-10T04:56:01;101321.31;;;12.34;73.29
30875;BME280;17581;43.222;27.924;2023-05-10T04:58:26;101311.63;;;12.42;72.75
30875;BME280;17581;43.222;27.924;2023-05-10T05:00:52;101287.50;;;12.41;72.24
30875;BME280;17581;43.222;27.924;2023-05-10T05:03:17;101296.84;;;12.59;71.90
30875;BME280;17581;43.222;27.924;2023-05-10T05:05:43;101327.41;;;12.93;71.35
30875;BME280;17581;43.222;27.924;2023-05-10T05:08:09;101310.81;;;12.97;70.59
30875;BME280;17581;43.222;27.924;2023-05-10T05:10:35;101309.34;;;13.04;69.25
30875;BME280;17581;43.222;27.924;2023-05-10T05:13:00;101323.63;;;13.18;68.81
30875;BME280;17581;43.222;27.924;2023-05-10T05:15:26;101315.50;;;13.29;68.09
30875;BME280;17581;43.222;27.924;2023-05-10T05:17:51;101319.28;;;13.37;67.68
30875;BME280;17581;43.222;27.924;2023-05-10T05:20:17;101315.84;;;13.35;66.82
30875;BME280;17581;43.222;27.924;2023-05-10T05:22:44;101314.00;;;13.36;65.98
30875;BME280;17581;43.222;27.924;2023-05-10T05:25:10;101328.47;;;13.46;65.65
30875;BME280;17581;43.222;27.924;2023-05-10T05:27:36;101312.75;;;13.51;65.43
30875;BME280;17581;43.222;27.924;2023-05-10T05:30:02;101307.94;;;13.54;65.33
30875;BME280;17581;43.222;27.924;2023-05-10T05:32:27;101328.09;;;13.82;64.99
30875;BME280;17581;43.222;27.924;2023-05-10T05:34:53;101289.84;;;13.66;64.38
30875;BME280;17581;43.222;27.924;2023-05-10T05:37:20;101322.09;;;14.10;64.96
30875;BME280;17581;43.222;27.924;2023-05-10T05:39:46;101320.13;;;14.12;64.28
30875;BME280;17581;43.222;27.924;2023-05-10T05:42:13;101326.97;;;14.16;64.10
30875;BME280;17581;43.222;27.924;2023-05-10T05:44:38;101330.47;;;14.07;63.46
30875;BME280;17581;43.222;27.924;2023-05-10T05:47:04;101325.47;;;14.03;63.71
30875;BME280;17581;43.222;27.924;2023-05-10T05:49:31;101330.19;;;14.10;63.33
30875;BME280;17581;43.222;27.924;2023-05-10T05:52:00;101327.25;;;14.13;63.53
30875;BME280;17581;43.222;27.924;2023-05-10T05:54:26;101304.47;;;14.16;62.63
30875;BME280;17581;43.222;27.924;2023-05-10T05:56:56;101338.16;;;14.44;62.41
30875;BME280;17581;43.222;27.924;2023-05-10T05:59:22;101323.13;;;14.51;62.01
30875;BME280;17581;43.222;27.924;2023-05-10T06:01:48;101340.41;;;14.59;61.25
30875;BME280;17581;43.222;27.924;2023-05-10T06:04:13;101328.44;;;14.62;60.94
30875;BME280;17581;43.222;27.924;2023-05-10T06:06:39;101315.38;;;14.67;61.02
30875;BME280;17581;43.222;27.924;2023-05-10T06:09:04;101328.19;;;14.65;60.81
30875;BME280;17581;43.222;27.924;2023-05-10T06:11:30;101322.50;;;14.68;60.63
30875;BME280;17581;43.222;27.924;2023-05-10T06:13:57;101320.81;;;14.67;60.39
30875;BME280;17581;43.222;27.924;2023-05-10T06:16:23;101323.97;;;14.72;59.58
30875;BME280;17581;43.222;27.924;2023-05-10T06:18:49;101329.97;;;14.76;60.24
30875;BME280;17581;43.222;27.924;2023-05-10T06:21:14;101347.63;;;14.70;60.71
30875;BME280;17581;43.222;27.924;2023-05-10T06:23:41;101339.00;;;14.65;60.62
30875;BME280;17581;43.222;27.924;2023-05-10T06:26:06;101338.13;;;14.55;60.92
30875;BME280;17581;43.222;27.924;2023-05-10T06:28:32;101339.81;;;14.56;60.87
30875;BME280;17581;43.222;27.924;2023-05-10T06:30:59;101324.69;;;14.53;60.42
30875;BME280;17581;43.222;27.924;2023-05-10T06:33:24;101325.41;;;14.76;60.50
30875;BME280;17581;43.222;27.924;2023-05-10T06:35:50;101322.59;;;14.87;59.70
30875;BME280;17581;43.222;27.924;2023-05-10T06:38:15;101310.06;;;14.86;58.50
30875;BME280;17581;43.222;27.924;2023-05-10T06:40:41;101349.78;;;15.06;58.29
30875;BME280;17581;43.222;27.924;2023-05-10T06:43:07;101325.50;;;14.95;58.71
30875;BME280;17581;43.222;27.924;2023-05-10T06:45:32;101325.38;;;14.97;59.01
30875;BME280;17581;43.222;27.924;2023-05-10T06:47:58;101342.56;;;15.16;58.38
30875;BME280;17581;43.222;27.924;2023-05-10T06:50:23;101348.38;;;15.12;57.41
30875;BME280;17581;43.222;27.924;2023-05-10T06:52:49;101332.81;;;15.04;57.64
30875;BME280;17581;43.222;27.924;2023-05-10T06:55:14;101348.88;;;14.96;58.25
30875;BME280;17581;43.222;27.924;2023-05-10T06:57:40;101343.78;;;15.03;57.17
30875;BME280;17581;43.222;27.924;2023-05-10T07:00:06;101333.44;;;14.87;57.75
30875;BME280;17581;43.222;27.924;2023-05-10T07:02:31;101331.09;;;15.03;57.25
30875;BME280;17581;43.222;27.924;2023-05-10T07:04:57;101332.41;;;15.09;57.09
30875;BME280;17581;43.222;27.924;2023-05-10T07:07:23;101320.25;;;15.03;56.55
30875;BME280;17581;43.222;27.924;2023-05-10T07:09:48;101319.88;;;15.17;56.40
30875;BME280;17581;43.222;27.924;2023-05-10T07:12:15;101341.03;;;15.33;56.73
30875;BME280;17581;43.222;27.924;2023-05-10T07:14:40;101342.72;;;15.24;56.37
30875;BME280;17581;43.222;27.924;2023-05-10T07:17:06;101325.84;;;15.11;56.74
30875;BME280;17581;43.222;27.924;2023-05-10T07:19:31;101322.19;;;15.22;56.52
30875;BME280;17581;43.222;27.924;2023-05-10T07:21:58;101349.47;;;15.40;57.08
30875;BME280;17581;43.222;27.924;2023-05-10T07:24:23;101349.31;;;15.32;56.76
30875;BME280;17581;43.222;27.924;2023-05-10T07:26:49;101353.44;;;15.66;56.88
30875;BME280;17581;43.222;27.924;2023-05-10T07:29:15;101344.91;;;15.90;57.26
30875;BME280;17581;43.222;27.924;2023-05-10T07:31:41;101353.63;;;16.22;55.65
30875;BME280;17581;43.222;27.924;2023-05-10T07:34:09;101362.63;;;16.42;55.70
30875;BME280;17581;43.222;27.924;2023-05-10T07:36:35;101360.78;;;16.13;56.38
30875;BME280;17581;43.222;27.924;2023-05-10T07:39:01;101364.16;;;15.96;57.35
30875;BME280;17581;43.222;27.924;2023-05-10T07:41:27;101363.19;;;16.16;57.26
30875;BME280;17581;43.222;27.924;2023-05-10T07:43:52;101371.75;;;15.93;57.24
30875;BME280;17581;43.222;27.924;2023-05-10T07:46:18;101371.75;;;15.83;57.77
30875;BME280;17581;43.222;27.924;2023-05-10T07:48:45;101369.41;;;15.50;59.25
30875;BME280;17581;43.222;27.924;2023-05-10T07:51:10;101387.16;;;15.83;59.31
30875;BME280;17581;43.222;27.924;2023-05-10T07:53:36;101366.00;;;15.67;59.32
30875;BME280;17581;43.222;27.924;2023-05-10T07:56:20;101363.13;;;15.59;59.97
30875;BME280;17581;43.222;27.924;2023-05-10T07:58:46;101345.88;;;15.30;60.61
30875;BME280;17581;43.222;27.924;2023-05-10T08:01:12;101365.56;;;15.62;60.72
30875;BME280;17581;43.222;27.924;2023-05-10T08:03:37;101354.72;;;15.81;59.12
30875;BME280;17581;43.222;27.924;2023-05-10T08:06:06;101377.44;;;15.80;57.63
30875;BME280;17581;43.222;27.924;2023-05-10T08:08:31;101355.56;;;15.72;56.90
30875;BME280;17581;43.222;27.924;2023-05-10T08:10:57;101377.16;;;15.83;57.30
30875;BME280;17581;43.222;27.924;2023-05-10T08:13:23;101365.19;;;15.95;56.16
30875;BME280;17581;43.222;27.924;2023-05-10T08:15:49;101360.19;;;16.29;55.03
30875;BME280;17581;43.222;27.924;2023-05-10T08:18:14;101365.47;;;16.50;54.68
30875;BME280;17581;43.222;27.924;2023-05-10T08:20:40;101353.22;;;16.26;54.52
30875;BME280;17581;43.222;27.924;2023-05-10T08:23:05;101373.75;;;16.48;54.51
30875;BME280;17581;43.222;27.924;2023-05-10T08:25:31;101376.91;;;16.63;55.60
30875;BME280;17581;43.222;27.924;2023-05-10T08:27:56;101371.59;;;16.71;56.17
30875;BME280;17581;43.222;27.924;2023-05-10T08:30:22;101372.06;;;16.66;57.17
30875;BME280;17581;43.222;27.924;2023-05-10T08:32:50;101368.19;;;16.59;55.84
30875;BME280;17581;43.222;27.924;2023-05-10T08:35:15;101372.63;;;16.41;56.56
30875;BME280;17581;43.222;27.924;2023-05-10T08:37:41;101352.47;;;16.24;56.92
30875;BME280;17581;43.222;27.924;2023-05-10T08:40:09;101382.03;;;16.47;58.29
30875;BME280;17581;43.222;27.924;2023-05-10T08:42:39;101345.75;;;16.09;58.18
30875;BME280;17581;43.222;27.924;2023-05-10T08:45:07;101368.31;;;16.00;58.64
30875;BME280;17581;43.222;27.924;2023-05-10T08:47:33;101392.63;;;16.11;59.34
30875;BME280;17581;43.222;27.924;2023-05-10T08:50:02;101387.91;;;16.04;59.20
30875;BME280;17581;43.222;27.924;2023-05-10T08:52:30;101386.91;;;15.95;58.68
30875;BME280;17581;43.222;27.924;2023-05-10T08:54:56;101386.03;;;15.95;59.37
30875;BME280;17581;43.222;27.924;2023-05-10T08:57:22;101370.91;;;15.92;59.39
30875;BME280;17581;43.222;27.924;2023-05-10T08:59:47;101367.03;;;15.85;58.71
30875;BME280;17581;43.222;27.924;2023-05-10T09:02:13;101382.63;;;16.02;59.51
30875;BME280;17581;43.222;27.924;2023-05-10T09:04:39;101378.88;;;15.84;59.98
30875;BME280;17581;43.222;27.924;2023-05-10T09:07:06;101404.16;;;15.94;60.54
30875;BME280;17581;43.222;27.924;2023-05-10T09:09:33;101409.13;;;15.79;60.95
30875;BME280;17581;43.222;27.924;2023-05-10T09:11:58;101376.09;;;15.55;60.22
30875;BME280;17581;43.222;27.924;2023-05-10T09:14:25;101396.25;;;15.62;59.92
30875;BME280;17581;43.222;27.924;2023-05-10T09:16:50;101390.84;;;15.82;59.43
30875;BME280;17581;43.222;27.924;2023-05-10T09:19:16;101365.19;;;15.95;58.87
30875;BME280;17581;43.222;27.924;2023-05-10T09:21:42;101394.34;;;16.22;59.29
30875;BME280;17581;43.222;27.924;2023-05-10T09:24:08;101384.91;;;16.16;59.53
30875;BME280;17581;43.222;27.924;2023-05-10T09:26:34;101381.91;;;16.19;58.99
30875;BME280;17581;43.222;27.924;2023-05-10T09:29:01;101369.78;;;16.04;58.42
30875;BME280;17581;43.222;27.924;2023-05-10T09:32:03;101387.91;;;16.13;57.37
30875;BME280;17581;43.222;27.924;2023-05-10T09:34:29;101387.34;;;16.10;57.07
30875;BME280;17581;43.222;27.924;2023-05-10T09:36:59;101392.19;;;16.06;56.72
30875;BME280;17581;43.222;27.924;2023-05-10T09:42:05;101374.03;;;15.97;56.56
30875;BME280;17581;43.222;27.924;2023-05-10T09:44:32;101404.59;;;15.99;56.43
30875;BME280;17581;43.222;27.924;2023-05-10T09:46:59;101394.03;;;15.87;56.61
30875;BME280;17581;43.222;27.924;2023-05-10T09:49:24;101378.59;;;15.87;55.82
30875;BME280;17581;43.222;27.924;2023-05-10T09:52:08;101390.91;;;16.01;54.97
30875;BME280;17581;43.222;27.924;2023-05-10T09:54:34;101392.03;;;15.98;55.02
30875;BME280;17581;43.222;27.924;2023-05-10T09:57:00;101397.31;;;16.00;55.45
30875;BME280;17581;43.222;27.924;2023-05-10T09:59:27;101396.47;;;16.18;55.12
30875;BME280;17581;43.222;27.924;2023-05-10T10:01:57;101393.75;;;16.18;55.23
30875;BME280;17581;43.222;27.924;2023-05-10T10:04:23;101381.78;;;16.11;55.53
30875;BME280;17581;43.222;27.924;2023-05-10T10:07:02;101371.16;;;15.79;55.97
30875;BME280;17581;43.222;27.924;2023-05-10T10:09:28;101404.59;;;15.99;55.91
30875;BME280;17581;43.222;27.924;2023-05-10T10:11:54;101388.88;;;16.03;55.99
30875;BME280;17581;43.222;27.924;2023-05-10T10:14:20;101381.63;;;16.22;54.64
30875;BME280;17581;43.222;27.924;2023-05-10T10:16:47;101382.63;;;16.41;53.67
30875;BME280;17581;43.222;27.924;2023-05-10T10:19:13;101406.06;;;16.22;53.64
30875;BME280;17581;43.222;27.924;2023-05-10T10:21:39;101393.47;;;16.31;53.46
30875;BME280;17581;43.222;27.924;2023-05-10T10:24:05;101402.34;;;16.62;52.85
30875;BME280;17581;43.222;27.924;2023-05-10T10:26:33;101384.94;;;16.36;52.64
30875;BME280;17581;43.222;27.924;2023-05-10T10:29:16;101396.50;;;16.47;52.01
30875;BME280;17581;43.222;27.924;2023-05-10T10:32:21;101407.47;;;16.46;52.09
30875;BME280;17581;43.222;27.924;2023-05-10T10:34:49;101385.47;;;16.39;52.43
30875;BME280;17581;43.222;27.924;2023-05-10T10:37:15;101407.78;;;16.71;52.17
30875;BME280;17581;43.222;27.924;2023-05-10T10:39:40;101399.16;;;16.95;52.62
30875;BME280;17581;43.222;27.924;2023-05-10T10:42:06;101393.44;;;16.79;52.59
30875;BME280;17581;43.222;27.924;2023-05-10T10:57:56;101395.22;;;16.42;53.96
30875;BME280;17581;43.222;27.924;2023-05-10T11:00:35;101420.22;;;16.26;52.89
30875;BME280;17581;43.222;27.924;2023-05-10T11:03:11;101418.34;;;16.17;52.91
30875;BME280;17581;43.222;27.924;2023-05-10T11:08:17;101413.63;;;16.28;53.46
30875;BME280;17581;43.222;27.924;2023-05-10T11:16:23;101424.63;;;16.37;52.85
30875;BME280;17581;43.222;27.924;2023-05-10T11:19:07;101414.63;;;16.37;53.80
30875;BME280;17581;43.222;27.924;2023-05-10T11:21:34;101393.19;;;16.34;52.86
30875;BME280;17581;43.222;27.924;2023-05-10T11:24:13;101403.47;;;16.21;53.27
30875;BME280;17581;43.222;27.924;2023-05-10T11:26:39;101403.88;;;15.88;53.40
30875;BME280;17581;43.222;27.924;2023-05-10T11:29:04;101390.00;;;15.81;54.42
30875;BME280;17581;43.222;27.924;2023-05-10T11:31:30;101413.47;;;16.01;53.48
30875;BME280;17581;43.222;27.924;2023-05-10T11:34:00;101411.63;;;16.21;53.33
30875;BME280;17581;43.222;27.924;2023-05-10T11:36:33;101421.19;;;16.15;54.38
30875;BME280;17581;43.222;27.924;2023-05-10T11:38:58;101412.66;;;16.29;54.35
30875;BME280;17581;43.222;27.924;2023-05-10T11:41:25;101413.34;;;16.31;54.40
30875;BME280;17581;43.222;27.924;2023-05-10T11:43:55;101390.06;;;16.19;54.63
30875;BME280;17581;43.222;27.924;2023-05-10T11:46:25;101402.78;;;16.28;53.99
30875;BME280;17581;43.222;27.924;2023-05-10T11:48:53;101405.22;;;16.41;54.05
30875;BME280;17581;43.222;27.924;2023-05-10T11:51:21;101388.47;;;16.07;53.68
30875;BME280;17581;43.222;27.924;2023-05-10T11:53:46;101400.88;;;16.00;53.93
30875;BME280;17581;43.222;27.924;2023-05-10T11:56:12;101397.59;;;15.97;54.42
30875;BME280;17581;43.222;27.924;2023-05-10T11:58:38;101407.59;;;15.96;53.86
30875;BME280;17581;43.222;27.924;2023-05-10T12:01:05;101391.03;;;15.99;54.49
30875;BME280;17581;43.222;27.924;2023-05-10T12:03:32;101382.78;;;16.20;53.81
30875;BME280;17581;43.222;27.924;2023-05-10T12:05:58;101393.47;;;16.21;53.41
30875;BME280;17581;43.222;27.924;2023-05-10T12:08:26;101385.22;;;16.32;53.46
30875;BME280;17581;43.222;27.924;2023-05-10T12:10:52;101386.47;;;16.28;53.74
30875;BME280;17581;43.222;27.924;2023-05-10T12:13:19;101402.34;;;16.43;53.53
30875;BME280;17581;43.222;27.924;2023-05-10T12:15:45;101388.91;;;16.51;53.13
30875;BME280;17581;43.222;27.924;2023-05-10T12:18:12;101387.19;;;16.50;53.23
30875;BME280;17581;43.222;27.924;2023-05-10T12:20:38;101388.31;;;16.76;52.91
30875;BME280;17581;43.222;27.924;2023-05-10T12:23:04;101392.44;;;16.99;50.97
30875;BME280;17581;43.222;27.924;2023-05-10T12:25:35;101387.19;;;16.69;51.55
30875;BME280;17581;43.222;27.924;2023-05-10T12:28:04;101386.75;;;16.73;51.82
30875;BME280;17581;43.222;27.924;2023-05-10T12:30:32;101366.88;;;16.73;52.97
30875;BME280;17581;43.222;27.924;2023-05-10T12:35:31;101370.81;;;16.98;51.88
30875;BME280;17581;43.222;27.924;2023-05-10T12:37:57;101365.31;;;17.17;51.96
30875;BME280;17581;43.222;27.924;2023-05-10T12:40:23;101362.91;;;17.14;50.97
30875;BME280;17581;43.222;27.924;2023-05-10T12:42:48;101370.31;;;17.21;50.51
30875;BME280;17581;43.222;27.924;2023-05-10T12:45:14;101356.44;;;17.24;51.18
30875;BME280;17581;43.222;27.924;2023-05-10T12:47:39;101364.38;;;17.35;50.53
30875;BME280;17581;43.222;27.924;2023-05-10T12:50:05;101366.44;;;17.24;50.71
30875;BME280;17581;43.222;27.924;2023-05-10T12:52:31;101355.44;;;17.16;49.70
30875;BME280;17581;43.222;27.924;2023-05-10T12:54:58;101335.16;;;17.10;49.73
30875;BME280;17581;43.222;27.924;2023-05-10T12:57:24;101344.13;;;17.20;50.01
30875;BME280;17581;43.222;27.924;2023-05-10T12:59:49;101352.19;;;17.12;49.49
30875;BME280;17581;43.222;27.924;2023-05-10T13:02:15;101346.53;;;16.96;49.86
30875;BME280;17581;43.222;27.924;2023-05-10T13:04:43;101361.84;;;16.88;50.31
30875;BME280;17581;43.222;27.924;2023-05-10T13:07:09;101336.84;;;16.84;48.94
30875;BME280;17581;43.222;27.924;2023-05-10T13:09:34;101329.38;;;16.86;48.64
30875;BME280;17581;43.222;27.924;2023-05-10T13:12:00;101342.56;;;16.81;48.37
30875;BME280;17581;43.222;27.924;2023-05-10T13:14:25;101358.25;;;16.97;49.24
30875;BME280;17581;43.222;27.924;2023-05-10T13:16:51;101351.31;;;16.75;50.08
30875;BME280;17581;43.222;27.924;2023-05-10T13:19:17;101328.91;;;16.63;50.78
30875;BME280;17581;43.222;27.924;2023-05-10T13:21:43;101342.56;;;16.81;51.08
30875;BME280;17581;43.222;27.924;2023-05-10T13:24:10;101349.53;;;16.93;51.48